Aviation Digital Data Service (ADDS)

Output produced by METARs form (1300 UTC 23 March 2019)
found at http://www.aviationweather.gov/metar/data/
 
METAR text: EBBR 231250Z VRB01KT 6000 SCT015 BKN035 11/07 Q1031 NOSIG
Conditions at: EBBR (BRUSSELS NATIONA, BE) observed 1250 UTC 23 March 2019
Temperature: 11.0°C (52°F)
Dewpoint: 7.0°C (45°F) [RH = 76%]
Pressure (altimeter): 30.44 inches Hg (1031.0 mb)
Winds: variable direction winds at 1 MPH (1 knots; 0.5 m/s)
Visibility: 4 miles ( 6 km)
Ceiling: 3500 feet AGL
Clouds: scattered clouds at 1500 feet AGL
broken clouds at 3500 feet AGL
Weather: no significant weather observed at this time

Forecast for: EBBR (BRUSSELS NATIONA, BE)
Text: TAF EBBR 231110Z 2312/2418 03006KT 7000 SCT020 BKN030
Forecast period: 1200 UTC 23 March 2019 to 1800 UTC 24 March 2019
Forecast type: FROM: standard forecast or significant change
Winds: from the NNE (30 degrees) at 7 MPH (6 knots; 3.1 m/s)
Visibility: 4 miles (7 km)
Ceiling: 3000 feet AGL
Clouds: scattered clouds at 2000 feet AGL
broken clouds at 3000 feet AGL
Weather: no significant weather forecast for this period
Text: TEMPO 2316/2319 4000 -DZRA SCT008 BKN012
Forecast period: 1600 to 1900 UTC 23 March 2019
Forecast type: TEMPORARY: The following changes expected for less than half the time period
Visibility: 2.49 miles (4.01 km)
Ceiling: 1200 feet AGL
Clouds: scattered clouds at 800 feet AGL
broken clouds at 1200 feet AGL
Weather: -DZ -RA  (light drizzle, light rain)